sensor_id;sensor_type;location;lat;lon;timestamp;P1;durP1;ratioP1;P2;durP2;ratioP2
3465;SDS011;1747;48.884;9.160;2023-02-15T03:15:30;15.73;;;8.80;;
3465;SDS011;1747;48.884;9.160;2023-02-15T03:18:14;18.95;;;9.40;;
3465;SDS011;1747;48.884;9.160;2023-02-15T03:20:44;18.83;;;10.43;;
3465;SDS011;1747;48.884;9.160;2023-02-15T03:23:12;20.95;;;9.77;;
3465;SDS011;1747;48.884;9.160;2023-02-15T03:25:43;19.67;;;9.75;;
3465;SDS011;1747;48.884;9.160;2023-02-15T03:28:15;17.08;;;9.38;;
3465;SDS011;1747;48.884;9.160;2023-02-15T03:30:47;20.05;;;9.95;;
3465;SDS011;1747;48.884;9.160;2023-02-15T03:33:18;22.38;;;10.52;;
3465;SDS011;1747;48.884;9.160;2023-02-15T03:35:49;18.60;;;10.30;;
3465;SDS011;1747;48.884;9.160;2023-02-15T03:38:24;21.40;;;10.77;;
3465;SDS011;1747;48.884;9.160;2023-02-15T03:40:56;20.75;;;10.52;;
3465;SDS011;1747;48.884;9.160;2023-02-15T03:43:38;19.52;;;10.10;;
3465;SDS011;1747;48.884;9.160;2023-02-15T03:46:13;17.65;;;9.23;;
3465;SDS011;1747;48.884;9.160;2023-02-15T03:48:47;17.85;;;9.20;;
3465;SDS011;1747;48.884;9.160;2023-02-15T03:51:19;18.67;;;9.18;;
3465;SDS011;1747;48.884;9.160;2023-02-15T03:54:03;20.55;;;8.80;;
3465;SDS011;1747;48.884;9.160;2023-02-15T03:56:33;18.73;;;9.27;;
3465;SDS011;1747;48.884;9.160;2023-02-15T03:59:02;20.35;;;8.82;;
3465;SDS011;1747;48.884;9.160;2023-02-15T04:01:50;19.42;;;10.00;;
3465;SDS011;1747;48.884;9.160;2023-02-15T04:04:24;16.25;;;9.02;;
3465;SDS011;1747;48.884;9.160;2023-02-15T04:06:54;20.73;;;9.75;;
3465;SDS011;1747;48.884;9.160;2023-02-15T04:09:21;20.77;;;8.93;;
3465;SDS011;1747;48.884;9.160;2023-02-15T04:12:05;19.58;;;8.88;;
3465;SDS011;1747;48.884;9.160;2023-02-15T04:14:32;21.15;;;9.20;;
3465;SDS011;1747;48.884;9.160;2023-02-15T04:17:18;15.45;;;8.32;;
3465;SDS011;1747;48.884;9.160;2023-02-15T04:19:45;19.50;;;8.20;;
3465;SDS011;1747;48.884;9.160;2023-02-15T04:22:29;17.58;;;9.20;;
3465;SDS011;1747;48.884;9.160;2023-02-15T04:25:13;17.17;;;9.25;;
3465;SDS011;1747;48.884;9.160;2023-02-15T04:27:41;22.92;;;9.13;;
3465;SDS011;1747;48.884;9.160;2023-02-15T04:30:09;21.02;;;8.68;;
3465;SDS011;1747;48.884;9.160;2023-02-15T04:32:39;21.10;;;11.88;;
3465;SDS011;1747;48.884;9.160;2023-02-15T04:35:06;21.80;;;10.00;;
3465;SDS011;1747;48.884;9.160;2023-02-15T04:37:34;20.50;;;9.40;;
3465;SDS011;1747;48.884;9.160;2023-02-15T04:40:01;18.45;;;8.80;;
3465;SDS011;1747;48.884;9.160;2023-02-15T04:42:34;20.95;;;9.38;;
3465;SDS011;1747;48.884;9.160;2023-02-15T04:45:01;29.73;;;9.50;;
3465;SDS011;1747;48.884;9.160;2023-02-15T04:47:28;18.98;;;9.60;;
3465;SDS011;1747;48.884;9.160;2023-02-15T04:49:57;18.65;;;9.35;;
3465;SDS011;1747;48.884;9.160;2023-02-15T04:52:24;18.92;;;8.70;;
3465;SDS011;1747;48.884;9.160;2023-02-15T04:54:51;31.60;;;9.55;;
3465;SDS011;1747;48.884;9.160;2023-02-15T04:57:18;17.23;;;9.30;;
3465;SDS011;1747;48.884;9.160;2023-02-15T04:59:45;16.42;;;8.65;;
3465;SDS011;1747;48.884;9.160;2023-02-15T05:02:12;17.33;;;9.18;;
3465;SDS011;1747;48.884;9.160;2023-02-15T05:04:38;20.55;;;9.60;;
3465;SDS011;1747;48.884;9.160;2023-02-15T05:07:07;17.88;;;9.02;;
3465;SDS011;1747;48.884;9.160;2023-02-15T05:09:34;21.63;;;9.60;;
3465;SDS011;1747;48.884;9.160;2023-02-15T05:12:00;21.05;;;10.25;;
3465;SDS011;1747;48.884;9.160;2023-02-15T05:14:27;20.75;;;9.43;;
3465;SDS011;1747;48.884;9.160;2023-02-15T05:16:54;21.42;;;10.20;;
3465;SDS011;1747;48.884;9.160;2023-02-15T05:19:21;21.38;;;10.00;;
3465;SDS011;1747;48.884;9.160;2023-02-15T05:21:49;19.27;;;9.50;;
3465;SDS011;1747;48.884;9.160;2023-02-15T05:24:18;17.90;;;9.25;;
3465;SDS011;1747;48.884;9.160;2023-02-15T05:27:02;19.30;;;9.23;;
3465;SDS011;1747;48.884;9.160;2023-02-15T05:29:47;19.98;;;9.40;;
3465;SDS011;1747;48.884;9.160;2023-02-15T05:32:14;16.67;;;9.38;;
3465;SDS011;1747;48.884;9.160;2023-02-15T05:34:41;21.77;;;10.98;;
3465;SDS011;1747;48.884;9.160;2023-02-15T05:37:08;21.20;;;9.00;;
3465;SDS011;1747;48.884;9.160;2023-02-15T05:39:36;16.48;;;8.70;;
3465;SDS011;1747;48.884;9.160;2023-02-15T05:42:03;18.48;;;9.60;;
3465;SDS011;1747;48.884;9.160;2023-02-15T05:44:30;15.88;;;8.40;;
3465;SDS011;1747;48.884;9.160;2023-02-15T05:46:57;16.60;;;8.80;;
3465;SDS011;1747;48.884;9.160;2023-02-15T05:49:24;21.35;;;9.45;;
3465;SDS011;1747;48.884;9.160;2023-02-15T05:51:51;16.98;;;9.23;;
3465;SDS011;1747;48.884;9.160;2023-02-15T05:54:18;20.10;;;9.93;;
3465;SDS011;1747;48.884;9.160;2023-02-15T05:56:46;18.40;;;9.70;;
3465;SDS011;1747;48.884;9.160;2023-02-15T05:59:13;23.50;;;10.30;;
3465;SDS011;1747;48.884;9.160;2023-02-15T06:01:40;20.83;;;10.23;;
3465;SDS011;1747;48.884;9.160;2023-02-15T06:04:07;25.65;;;10.63;;
3465;SDS011;1747;48.884;9.160;2023-02-15T06:06:34;20.15;;;9.90;;
3465;SDS011;1747;48.884;9.160;2023-02-15T06:09:01;21.52;;;9.70;;
3465;SDS011;1747;48.884;9.160;2023-02-15T06:11:28;24.08;;;10.27;;
3465;SDS011;1747;48.884;9.160;2023-02-15T06:13:56;18.50;;;9.95;;
3465;SDS011;1747;48.884;9.160;2023-02-15T06:16:23;23.47;;;12.73;;
3465;SDS011;1747;48.884;9.160;2023-02-15T06:18:50;18.98;;;10.38;;
3465;SDS011;1747;48.884;9.160;2023-02-15T06:21:17;19.77;;;10.32;;
3465;SDS011;1747;48.884;9.160;2023-02-15T06:23:43;19.15;;;8.93;;
3465;SDS011;1747;48.884;9.160;2023-02-15T06:26:10;24.40;;;11.30;;
3465;SDS011;1747;48.884;9.160;2023-02-15T06:28:37;18.63;;;9.98;;
3465;SDS011;1747;48.884;9.160;2023-02-15T06:31:07;19.75;;;9.98;;
3465;SDS011;1747;48.884;9.160;2023-02-15T06:33:34;19.33;;;9.60;;
3465;SDS011;1747;48.884;9.160;2023-02-15T06:36:01;26.05;;;10.57;;
3465;SDS011;1747;48.884;9.160;2023-02-15T06:38:28;21.08;;;10.82;;
3465;SDS011;1747;48.884;9.160;2023-02-15T06:40:55;30.02;;;12.50;;
3465;SDS011;1747;48.884;9.160;2023-02-15T06:43:22;24.75;;;11.23;;
3465;SDS011;1747;48.884;9.160;2023-02-15T06:45:49;25.48;;;11.65;;
3465;SDS011;1747;48.884;9.160;2023-02-15T06:48:17;20.48;;;9.55;;
3465;SDS011;1747;48.884;9.160;2023-02-15T06:50:44;23.00;;;11.00;;
3465;SDS011;1747;48.884;9.160;2023-02-15T06:53:11;31.33;;;10.60;;
3465;SDS011;1747;48.884;9.160;2023-02-15T06:55:38;26.05;;;11.45;;
3465;SDS011;1747;48.884;9.160;2023-02-15T06:58:04;26.55;;;9.60;;
3465;SDS011;1747;48.884;9.160;2023-02-15T07:00:31;31.48;;;11.15;;
3465;SDS011;1747;48.884;9.160;2023-02-15T07:02:58;25.45;;;11.27;;
3465;SDS011;1747;48.884;9.160;2023-02-15T07:05:28;26.50;;;10.95;;
3465;SDS011;1747;48.884;9.160;2023-02-15T07:07:56;27.98;;;11.35;;
3465;SDS011;1747;48.884;9.160;2023-02-15T07:10:22;23.92;;;10.40;;
3465;SDS011;1747;48.884;9.160;2023-02-15T07:12:50;23.25;;;10.57;;
3465;SDS011;1747;48.884;9.160;2023-02-15T07:15:16;26.15;;;11.35;;
3465;SDS011;1747;48.884;9.160;2023-02-15T07:17:46;22.92;;;10.75;;
3465;SDS011;1747;48.884;9.160;2023-02-15T07:20:14;21.05;;;10.85;;
3465;SDS011;1747;48.884;9.160;2023-02-15T07:22:44;22.27;;;10.52;;
3465;SDS011;1747;48.884;9.160;2023-02-15T07:25:11;21.95;;;11.10;;
3465;SDS011;1747;48.884;9.160;2023-02-15T07:27:38;19.15;;;10.25;;
3465;SDS011;1747;48.884;9.160;2023-02-15T07:30:06;19.45;;;10.30;;
3465;SDS011;1747;48.884;9.160;2023-02-15T07:32:34;20.60;;;9.90;;
3465;SDS011;1747;48.884;9.160;2023-02-15T07:35:01;23.50;;;10.65;;
3465;SDS011;1747;48.884;9.160;2023-02-15T07:37:28;21.75;;;10.50;;
3465;SDS011;1747;48.884;9.160;2023-02-15T07:39:56;25.90;;;10.38;;
3465;SDS011;1747;48.884;9.160;2023-02-15T07:42:23;29.85;;;10.75;;
3465;SDS011;1747;48.884;9.160;2023-02-15T07:44:50;23.05;;;10.63;;
3465;SDS011;1747;48.884;9.160;2023-02-15T07:47:17;25.02;;;10.95;;
3465;SDS011;1747;48.884;9.160;2023-02-15T07:49:44;22.67;;;11.18;;
3465;SDS011;1747;48.884;9.160;2023-02-15T07:52:11;23.80;;;11.35;;
3465;SDS011;1747;48.884;9.160;2023-02-15T07:54:38;25.17;;;12.23;;
3465;SDS011;1747;48.884;9.160;2023-02-15T07:57:06;24.45;;;11.48;;
3465;SDS011;1747;48.884;9.160;2023-02-15T07:59:32;27.55;;;11.57;;
3465;SDS011;1747;48.884;9.160;2023-02-15T08:01:59;28.23;;;11.55;;
3465;SDS011;1747;48.884;9.160;2023-02-15T08:04:26;23.73;;;11.35;;
3465;SDS011;1747;48.884;9.160;2023-02-15T08:06:53;23.27;;;11.15;;
3465;SDS011;1747;48.884;9.160;2023-02-15T08:09:20;23.63;;;11.45;;
3465;SDS011;1747;48.884;9.160;2023-02-15T08:11:47;24.88;;;11.35;;
3465;SDS011;1747;48.884;9.160;2023-02-15T08:14:16;27.30;;;11.80;;
3465;SDS011;1747;48.884;9.160;2023-02-15T08:16:46;26.63;;;11.88;;
3465;SDS011;1747;48.884;9.160;2023-02-15T08:19:15;26.13;;;12.02;;
3465;SDS011;1747;48.884;9.160;2023-02-15T08:21:43;22.67;;;11.82;;
3465;SDS011;1747;48.884;9.160;2023-02-15T08:24:11;22.90;;;11.73;;
3465;SDS011;1747;48.884;9.160;2023-02-15T08:26:39;24.48;;;11.98;;
3465;SDS011;1747;48.884;9.160;2023-02-15T08:29:09;25.25;;;12.20;;
3465;SDS011;1747;48.884;9.160;2023-02-15T08:31:37;29.60;;;12.80;;
3465;SDS011;1747;48.884;9.160;2023-02-15T08:34:06;29.52;;;13.25;;
3465;SDS011;1747;48.884;9.160;2023-02-15T08:36:34;26.02;;;11.68;;
3465;SDS011;1747;48.884;9.160;2023-02-15T08:39:02;25.08;;;12.30;;
3465;SDS011;1747;48.884;9.160;2023-02-15T08:41:31;25.02;;;12.25;;
3465;SDS011;1747;48.884;9.160;2023-02-15T08:43:59;24.70;;;12.27;;
3465;SDS011;1747;48.884;9.160;2023-02-15T08:46:28;24.23;;;12.35;;
3465;SDS011;1747;48.884;9.160;2023-02-15T08:48:58;26.75;;;12.68;;
3465;SDS011;1747;48.884;9.160;2023-02-15T08:51:25;25.85;;;13.32;;
3465;SDS011;1747;48.884;9.160;2023-02-15T08:53:54;27.08;;;12.88;;
3465;SDS011;1747;48.884;9.160;2023-02-15T08:56:24;24.35;;;12.45;;
3465;SDS011;1747;48.884;9.160;2023-02-15T08:58:52;24.20;;;11.80;;
3465;SDS011;1747;48.884;9.160;2023-02-15T09:01:19;30.92;;;12.85;;
3465;SDS011;1747;48.884;9.160;2023-02-15T09:03:48;23.58;;;12.80;;
3465;SDS011;1747;48.884;9.160;2023-02-15T09:06:19;26.48;;;13.10;;
3465;SDS011;1747;48.884;9.160;2023-02-15T09:08:47;26.58;;;12.30;;
3465;SDS011;1747;48.884;9.160;2023-02-15T09:11:14;23.60;;;12.48;;
3465;SDS011;1747;48.884;9.160;2023-02-15T09:13:47;27.27;;;12.95;;
3465;SDS011;1747;48.884;9.160;2023-02-15T09:16:15;25.80;;;12.25;;
3465;SDS011;1747;48.884;9.160;2023-02-15T09:18:42;26.65;;;12.95;;
3465;SDS011;1747;48.884;9.160;2023-02-15T09:21:10;25.67;;;12.35;;
3465;SDS011;1747;48.884;9.160;2023-02-15T09:23:39;25.38;;;12.27;;
3465;SDS011;1747;48.884;9.160;2023-02-15T09:26:07;24.38;;;12.85;;
3465;SDS011;1747;48.884;9.160;2023-02-15T09:28:35;24.05;;;12.02;;
3465;SDS011;1747;48.884;9.160;2023-02-15T09:31:06;25.83;;;13.27;;
3465;SDS011;1747;48.884;9.160;2023-02-15T09:33:34;25.42;;;12.45;;
3465;SDS011;1747;48.884;9.160;2023-02-15T09:36:01;26.02;;;13.32;;
3465;SDS011;1747;48.884;9.160;2023-02-15T09:38:28;30.80;;;14.82;;
3465;SDS011;1747;48.884;9.160;2023-02-15T09:41:03;28.42;;;14.00;;
3465;SDS011;1747;48.884;9.160;2023-02-15T09:43:40;32.28;;;14.32;;
3465;SDS011;1747;48.884;9.160;2023-02-15T09:46:20;30.40;;;14.93;;
3465;SDS011;1747;48.884;9.160;2023-02-15T09:49:00;30.65;;;14.82;;
3465;SDS011;1747;48.884;9.160;2023-02-15T09:51:45;29.45;;;15.30;;
3465;SDS011;1747;48.884;9.160;2023-02-15T09:54:33;36.95;;;15.88;;
3465;SDS011;1747;48.884;9.160;2023-02-15T09:57:15;32.47;;;16.30;;
3465;SDS011;1747;48.884;9.160;2023-02-15T09:59:50;29.33;;;15.95;;
3465;SDS011;1747;48.884;9.160;2023-02-15T10:02:27;34.72;;;16.65;;
3465;SDS011;1747;48.884;9.160;2023-02-15T10:05:07;33.78;;;16.25;;
3465;SDS011;1747;48.884;9.160;2023-02-15T10:07:55;30.80;;;16.63;;
3465;SDS011;1747;48.884;9.160;2023-02-15T10:10:41;34.40;;;16.45;;
3465;SDS011;1747;48.884;9.160;2023-02-15T10:13:23;31.90;;;16.85;;
3465;SDS011;1747;48.884;9.160;2023-02-15T10:16:01;35.25;;;17.35;;
3465;SDS011;1747;48.884;9.160;2023-02-15T10:18:45;28.10;;;15.20;;
3465;SDS011;1747;48.884;9.160;2023-02-15T10:21:30;31.45;;;16.20;;
3465;SDS011;1747;48.884;9.160;2023-02-15T10:24:10;28.35;;;15.50;;
3465;SDS011;1747;48.884;9.160;2023-02-15T10:26:55;28.40;;;15.23;;
3465;SDS011;1747;48.884;9.160;2023-02-15T10:29:28;31.65;;;15.75;;
3465;SDS011;1747;48.884;9.160;2023-02-15T10:32:04;28.38;;;15.02;;
3465;SDS011;1747;48.884;9.160;2023-02-15T10:34:39;26.08;;;14.95;;
3465;SDS011;1747;48.884;9.160;2023-02-15T10:37:28;31.80;;;16.80;;
3465;SDS011;1747;48.884;9.160;2023-02-15T10:40:12;28.38;;;14.93;;
3465;SDS011;1747;48.884;9.160;2023-02-15T10:42:50;33.38;;;17.48;;
3465;SDS011;1747;48.884;9.160;2023-02-15T10:45:28;35.90;;;17.52;;
3465;SDS011;1747;48.884;9.160;2023-02-15T10:48:11;30.42;;;16.00;;
3465;SDS011;1747;48.884;9.160;2023-02-15T10:51:01;34.08;;;17.17;;
3465;SDS011;1747;48.884;9.160;2023-02-15T10:53:38;34.95;;;16.55;;
3465;SDS011;1747;48.884;9.160;2023-02-15T10:56:24;29.23;;;15.77;;
3465;SDS011;1747;48.884;9.160;2023-02-15T10:59:03;32.20;;;16.83;;
3465;SDS011;1747;48.884;9.160;2023-02-15T11:01:46;28.70;;;15.77;;
3465;SDS011;1747;48.884;9.160;2023-02-15T11:07:18;27.23;;;15.63;;
3465;SDS011;1747;48.884;9.160;2023-02-15T11:09:49;28.30;;;16.10;;
3465;SDS011;1747;48.884;9.160;2023-02-15T11:12:24;31.25;;;16.35;;
3465;SDS011;1747;48.884;9.160;2023-02-15T11:14:55;30.00;;;16.77;;
3465;SDS011;1747;48.884;9.160;2023-02-15T11:17:29;33.53;;;16.92;;
3465;SDS011;1747;48.884;9.160;2023-02-15T11:20:05;31.13;;;16.73;;
3465;SDS011;1747;48.884;9.160;2023-02-15T11:22:41;33.22;;;16.50;;
3465;SDS011;1747;48.884;9.160;2023-02-15T11:25:14;36.37;;;17.67;;
3465;SDS011;1747;48.884;9.160;2023-02-15T11:27:45;38.40;;;17.63;;
3465;SDS011;1747;48.884;9.160;2023-02-15T11:30:15;32.85;;;17.67;;
3465;SDS011;1747;48.884;9.160;2023-02-15T11:32:47;32.25;;;17.40;;
3465;SDS011;1747;48.884;9.160;2023-02-15T11:35:18;35.08;;;17.13;;
3465;SDS011;1747;48.884;9.160;2023-02-15T11:37:51;37.03;;;18.50;;
3465;SDS011;1747;48.884;9.160;2023-02-15T11:40:24;32.25;;;17.63;;
3465;SDS011;1747;48.884;9.160;2023-02-15T11:42:54;32.85;;;18.27;;
3465;SDS011;1747;48.884;9.160;2023-02-15T11:45:25;35.63;;;18.77;;
3465;SDS011;1747;48.884;9.160;2023-02-15T11:47:56;35.33;;;17.30;;
3465;SDS011;1747;48.884;9.160;2023-02-15T11:50:24;31.00;;;17.52;;
3465;SDS011;1747;48.884;9.160;2023-02-15T11:52:56;33.55;;;16.70;;
3465;SDS011;1747;48.884;9.160;2023-02-15T11:55:25;36.22;;;17.38;;
3465;SDS011;1747;48.884;9.160;2023-02-15T11:57:55;34.55;;;17.90;;
3465;SDS011;1747;48.884;9.160;2023-02-15T12:00:30;32.33;;;17.50;;
3465;SDS011;1747;48.884;9.160;2023-02-15T12:03:03;37.03;;;18.10;;
3465;SDS011;1747;48.884;9.160;2023-02-15T12:05:40;33.85;;;16.80;;
3465;SDS011;1747;48.884;9.160;2023-02-15T12:08:12;32.22;;;17.65;;
3465;SDS011;1747;48.884;9.160;2023-02-15T12:10:43;33.72;;;18.35;;
3465;SDS011;1747;48.884;9.160;2023-02-15T12:13:19;30.40;;;17.23;;
3465;SDS011;1747;48.884;9.160;2023-02-15T12:15:46;32.95;;;17.92;;
3465;SDS011;1747;48.884;9.160;2023-02-15T12:18:20;30.88;;;17.17;;
3465;SDS011;1747;48.884;9.160;2023-02-15T12:21:03;30.83;;;17.30;;
3465;SDS011;1747;48.884;9.160;2023-02-15T12:23:32;28.90;;;16.98;;
3465;SDS011;1747;48.884;9.160;2023-02-15T12:26:00;28.98;;;16.65;;
3465;SDS011;1747;48.884;9.160;2023-02-15T12:28:30;28.17;;;16.85;;
3465;SDS011;1747;48.884;9.160;2023-02-15T12:31:00;30.02;;;17.70;;
3465;SDS011;1747;48.884;9.160;2023-02-15T12:33:30;29.50;;;17.38;;
3465;SDS011;1747;48.884;9.160;2023-02-15T12:36:03;31.13;;;17.45;;
3465;SDS011;1747;48.884;9.160;2023-02-15T12:38:37;30.55;;;17.23;;
3465;SDS011;1747;48.884;9.160;2023-02-15T12:41:05;29.67;;;17.73;;
3465;SDS011;1747;48.884;9.160;2023-02-15T12:43:50;29.98;;;17.52;;
3465;SDS011;1747;48.884;9.160;2023-02-15T12:46:30;28.60;;;17.65;;
3465;SDS011;1747;48.884;9.160;2023-02-15T12:49:11;27.40;;;17.48;;
3465;SDS011;1747;48.884;9.160;2023-02-15T12:51:44;29.40;;;17.73;;
3465;SDS011;1747;48.884;9.160;2023-02-15T12:54:16;28.05;;;16.98;;
3465;SDS011;1747;48.884;9.160;2023-02-15T12:56:50;28.38;;;17.20;;
3465;SDS011;1747;48.884;9.160;2023-02-15T12:59:18;26.05;;;17.15;;
3465;SDS011;1747;48.884;9.160;2023-02-15T13:01:46;26.00;;;16.95;;
3465;SDS011;1747;48.884;9.160;2023-02-15T13:04:18;29.20;;;17.27;;
3465;SDS011;1747;48.884;9.160;2023-02-15T13:06:52;26.42;;;17.35;;
3465;SDS011;1747;48.884;9.160;2023-02-15T13:09:24;24.65;;;16.65;;
3465;SDS011;1747;48.884;9.160;2023-02-15T13:12:08;29.48;;;18.23;;
3465;SDS011;1747;48.884;9.160;2023-02-15T13:14:42;26.13;;;17.35;;
3465;SDS011;1747;48.884;9.160;2023-02-15T13:17:11;26.38;;;17.10;;
3465;SDS011;1747;48.884;9.160;2023-02-15T13:19:44;25.95;;;16.52;;
3465;SDS011;1747;48.884;9.160;2023-02-15T13:22:15;25.33;;;16.38;;
3465;SDS011;1747;48.884;9.160;2023-02-15T13:24:46;25.42;;;16.10;;
3465;SDS011;1747;48.884;9.160;2023-02-15T13:27:15;25.20;;;16.73;;
3465;SDS011;1747;48.884;9.160;2023-02-15T13:29:45;23.33;;;15.85;;
3465;SDS011;1747;48.884;9.160;2023-02-15T13:32:20;26.20;;;15.98;;
3465;SDS011;1747;48.884;9.160;2023-02-15T13:34:54;24.52;;;17.52;;
3465;SDS011;1747;48.884;9.160;2023-02-15T13:37:28;24.02;;;16.92;;
3465;SDS011;1747;48.884;9.160;2023-02-15T13:40:15;23.35;;;15.70;;
3465;SDS011;1747;48.884;9.160;2023-02-15T13:42:49;24.83;;;15.65;;
3465;SDS011;1747;48.884;9.160;2023-02-15T13:45:26;22.60;;;16.58;;
3465;SDS011;1747;48.884;9.160;2023-02-15T13:48:02;22.48;;;15.60;;
3465;SDS011;1747;48.884;9.160;2023-02-15T13:50:46;21.45;;;15.90;;
3465;SDS011;1747;48.884;9.160;2023-02-15T13:53:45;24.17;;;16.30;;
3465;SDS011;1747;48.884;9.160;2023-02-15T13:56:33;27.48;;;16.48;;
3465;SDS011;1747;48.884;9.160;2023-02-15T13:59:22;23.00;;;15.63;;
3465;SDS011;1747;48.884;9.160;2023-02-15T14:02:02;24.33;;;16.58;;
3465;SDS011;1747;48.884;9.160;2023-02-15T14:04:52;26.38;;;16.90;;
3465;SDS011;1747;48.884;9.160;2023-02-15T14:07:33;21.17;;;16.10;;
3465;SDS011;1747;48.884;9.160;2023-02-15T14:10:18;25.02;;;16.33;;
3465;SDS011;1747;48.884;9.160;2023-02-15T14:13:05;21.58;;;15.75;;
3465;SDS011;1747;48.884;9.160;2023-02-15T14:15:47;25.88;;;16.67;;
3465;SDS011;1747;48.884;9.160;2023-02-15T14:18:19;22.95;;;16.20;;
3465;SDS011;1747;48.884;9.160;2023-02-15T14:20:57;24.92;;;16.75;;
3465;SDS011;1747;48.884;9.160;2023-02-15T14:23:35;23.33;;;16.40;;
3465;SDS011;1747;48.884;9.160;2023-02-15T14:26:10;25.50;;;16.08;;
3465;SDS011;1747;48.884;9.160;2023-02-15T14:28:42;20.63;;;15.65;;
3465;SDS011;1747;48.884;9.160;2023-02-15T14:31:15;23.02;;;17.10;;
3465;SDS011;1747;48.884;9.160;2023-02-15T14:33:49;24.75;;;16.58;;
3465;SDS011;1747;48.884;9.160;2023-02-15T14:36:20;24.25;;;15.65;;
3465;SDS011;1747;48.884;9.160;2023-02-15T14:38:56;21.17;;;15.25;;
3465;SDS011;1747;48.884;9.160;2023-02-15T14:41:53;26.48;;;16.83;;
3465;SDS011;1747;48.884;9.160;2023-02-15T14:44:27;24.20;;;16.80;;
3465;SDS011;1747;48.884;9.160;2023-02-15T14:47:01;21.40;;;16.20;;
3465;SDS011;1747;48.884;9.160;2023-02-15T14:49:32;22.83;;;16.48;;
3465;SDS011;1747;48.884;9.160;2023-02-15T14:52:03;23.73;;;16.65;;
3465;SDS011;1747;48.884;9.160;2023-02-15T14:54:55;23.10;;;16.63;;
3465;SDS011;1747;48.884;9.160;2023-02-15T14:57:26;24.25;;;17.90;;
3465;SDS011;1747;48.884;9.160;2023-02-15T15:00:01;25.30;;;16.23;;
3465;SDS011;1747;48.884;9.160;2023-02-15T15:02:48;24.05;;;16.80;;
3465;SDS011;1747;48.884;9.160;2023-02-15T15:05:20;22.33;;;15.43;;
3465;SDS011;1747;48.884;9.160;2023-02-15T15:07:51;22.20;;;15.50;;
3465;SDS011;1747;48.884;9.160;2023-02-15T15:10:36;23.73;;;15.88;;
3465;SDS011;1747;48.884;9.160;2023-02-15T15:15:44;21.83;;;15.95;;
3465;SDS011;1747;48.884;9.160;2023-02-15T15:18:13;23.98;;;15.40;;
3465;SDS011;1747;48.884;9.160;2023-02-15T15:21:10;19.23;;;14.93;;
3465;SDS011;1747;48.884;9.160;2023-02-15T15:23:41;22.33;;;16.05;;
3465;SDS011;1747;48.884;9.160;2023-02-15T15:26:27;23.75;;;15.15;;
3465;SDS011;1747;48.884;9.160;2023-02-15T15:28:56;23.17;;;15.52;;
3465;SDS011;1747;48.884;9.160;2023-02-15T15:31:27;22.45;;;15.65;;
3465;SDS011;1747;48.884;9.160;2023-02-15T15:34:17;27.73;;;16.50;;
3465;SDS011;1747;48.884;9.160;2023-02-15T15:37:19;23.15;;;16.50;;
3465;SDS011;1747;48.884;9.160;2023-02-15T15:43:13;25.88;;;17.80;;
3465;SDS011;1747;48.884;9.160;2023-02-15T15:46:20;29.63;;;18.23;;
3465;SDS011;1747;48.884;9.160;2023-02-15T15:49:07;24.55;;;17.83;;
3465;SDS011;1747;48.884;9.160;2023-02-15T15:51:39;30.10;;;18.33;;
3465;SDS011;1747;48.884;9.160;2023-02-15T15:54:11;27.17;;;18.52;;
3465;SDS011;1747;48.884;9.160;2023-02-15T15:56:40;29.60;;;18.30;;
3465;SDS011;1747;48.884;9.160;2023-02-15T15:59:14;25.85;;;18.30;;
3465;SDS011;1747;48.884;9.160;2023-02-15T16:01:47;31.48;;;18.90;;
3465;SDS011;1747;48.884;9.160;2023-02-15T16:04:22;29.58;;;19.27;;
3465;SDS011;1747;48.884;9.160;2023-02-15T16:06:50;30.00;;;19.02;;
3465;SDS011;1747;48.884;9.160;2023-02-15T16:09:20;24.88;;;17.98;;
3465;SDS011;1747;48.884;9.160;2023-02-15T16:11:50;27.42;;;18.70;;
3465;SDS011;1747;48.884;9.160;2023-02-15T16:14:23;26.65;;;18.40;;
3465;SDS011;1747;48.884;9.160;2023-02-15T16:16:59;27.98;;;19.65;;
3465;SDS011;1747;48.884;9.160;2023-02-15T16:19:29;25.17;;;17.63;;
3465;SDS011;1747;48.884;9.160;2023-02-15T16:22:00;26.42;;;18.63;;
3465;SDS011;1747;48.884;9.160;2023-02-15T16:24:37;25.88;;;18.05;;
3465;SDS011;1747;48.884;9.160;2023-02-15T16:27:25;22.75;;;16.25;;
3465;SDS011;1747;48.884;9.160;2023-02-15T16:30:13;27.13;;;17.08;;
3465;SDS011;1747;48.884;9.160;2023-02-15T16:32:44;28.70;;;18.65;;
3465;SDS011;1747;48.884;9.160;2023-02-15T16:35:13;26.80;;;17.73;;
3465;SDS011;1747;48.884;9.160;2023-02-15T16:37:41;28.27;;;17.88;;
3465;SDS011;1747;48.884;9.160;2023-02-15T16:40:12;30.88;;;17.25;;
3465;SDS011;1747;48.884;9.160;2023-02-15T16:42:53;27.95;;;17.33;;
3465;SDS011;1747;48.884;9.160;2023-02-15T16:45:27;25.27;;;15.75;;
3465;SDS011;1747;48.884;9.160;2023-02-15T16:47:58;26.48;;;16.85;;
3465;SDS011;1747;48.884;9.160;2023-02-15T16:50:28;22.67;;;15.80;;
3465;SDS011;1747;48.884;9.160;2023-02-15T16:52:59;23.80;;;15.32;;
3465;SDS011;1747;48.884;9.160;2023-02-15T16:55:28;25.00;;;15.40;;
3465;SDS011;1747;48.884;9.160;2023-02-15T16:58:04;23.23;;;15.10;;
3465;SDS011;1747;48.884;9.160;2023-02-15T17:00:35;26.63;;;16.30;;
3465;SDS011;1747;48.884;9.160;2023-02-15T17:03:06;26.30;;;16.42;;
3465;SDS011;1747;48.884;9.160;2023-02-15T17:05:48;22.88;;;14.90;;
3465;SDS011;1747;48.884;9.160;2023-02-15T17:08:16;24.40;;;16.15;;
3465;SDS011;1747;48.884;9.160;2023-02-15T17:11:03;28.65;;;16.20;;
3465;SDS011;1747;48.884;9.160;2023-02-15T17:16:49;21.70;;;13.18;;
3465;SDS011;1747;48.884;9.160;2023-02-15T17:19:22;25.48;;;15.38;;
3465;SDS011;1747;48.884;9.160;2023-02-15T17:21:52;27.85;;;15.68;;
3465;SDS011;1747;48.884;9.160;2023-02-15T17:24:22;26.58;;;15.43;;
3465;SDS011;1747;48.884;9.160;2023-02-15T17:26:59;24.55;;;14.35;;
3465;SDS011;1747;48.884;9.160;2023-02-15T17:29:31;22.92;;;12.40;;
3465;SDS011;1747;48.884;9.160;2023-02-15T17:32:03;21.13;;;12.15;;
3465;SDS011;1747;48.884;9.160;2023-02-15T17:34:42;27.15;;;14.20;;
3465;SDS011;1747;48.884;9.160;2023-02-15T17:37:12;25.63;;;13.57;;
3465;SDS011;1747;48.884;9.160;2023-02-15T17:39:40;25.02;;;14.35;;
3465;SDS011;1747;48.884;9.160;2023-02-15T17:42:07;22.23;;;14.07;;
3465;SDS011;1747;48.884;9.160;2023-02-15T17:44:34;25.63;;;14.50;;
3465;SDS011;1747;48.884;9.160;2023-02-15T17:47:02;21.42;;;12.38;;
3465;SDS011;1747;48.884;9.160;2023-02-15T17:49:29;22.52;;;13.25;;
3465;SDS011;1747;48.884;9.160;2023-02-15T17:51:59;22.88;;;12.55;;
3465;SDS011;1747;48.884;9.160;2023-02-15T17:54:27;19.38;;;12.80;;
3465;SDS011;1747;48.884;9.160;2023-02-15T17:57:11;21.63;;;12.13;;
3465;SDS011;1747;48.884;9.160;2023-02-15T17:59:39;17.25;;;11.30;;
3465;SDS011;1747;48.884;9.160;2023-02-15T18:02:24;20.67;;;12.60;;
3465;SDS011;1747;48.884;9.160;2023-02-15T18:05:11;18.83;;;12.48;;
3465;SDS011;1747;48.884;9.160;2023-02-15T18:07:56;20.65;;;12.07;;
3465;SDS011;1747;48.884;9.160;2023-02-15T18:10:41;23.17;;;12.60;;
3465;SDS011;1747;48.884;9.160;2023-02-15T18:13:25;19.92;;;12.77;;
3465;SDS011;1747;48.884;9.160;2023-02-15T18:15:52;21.98;;;13.45;;
3465;SDS011;1747;48.884;9.160;2023-02-15T18:18:20;19.58;;;11.82;;
3465;SDS011;1747;48.884;9.160;2023-02-15T18:20:48;20.08;;;12.63;;
3465;SDS011;1747;48.884;9.160;2023-02-15T18:23:15;20.98;;;12.13;;
3465;SDS011;1747;48.884;9.160;2023-02-15T18:25:42;21.27;;;13.15;;
3465;SDS011;1747;48.884;9.160;2023-02-15T18:28:09;21.13;;;12.38;;
3465;SDS011;1747;48.884;9.160;2023-02-15T18:30:37;24.85;;;15.15;;
3465;SDS011;1747;48.884;9.160;2023-02-15T18:33:09;24.70;;;14.50;;
3465;SDS011;1747;48.884;9.160;2023-02-15T18:35:50;23.13;;;13.63;;
3465;SDS011;1747;48.884;9.160;2023-02-15T18:38:17;22.33;;;13.95;;
3465;SDS011;1747;48.884;9.160;2023-02-15T18:40:45;24.20;;;13.02;;
3465;SDS011;1747;48.884;9.160;2023-02-15T18:43:14;19.55;;;12.95;;
3465;SDS011;1747;48.884;9.160;2023-02-15T18:45:41;20.42;;;12.98;;
3465;SDS011;1747;48.884;9.160;2023-02-15T18:48:08;22.67;;;12.60;;
3465;SDS011;1747;48.884;9.160;2023-02-15T18:50:37;19.00;;;11.93;;